Time;durP1;ratioP1;P1;durP2;ratioP2;P2;SDS_P1;SDS_P2;PMS_P1;PMS_P2;Temp;Humidity;BMP_temperature;BMP_pressure;BME280_temperature;BME280_humidity;BME280_pressure;Samples;Min_cycle;Max_cycle;Signal;HPM_P1;HPM_P2
2022/12/30 00:01:50;;;;;;;32.23;22.90;;;19.90;83.10;;;;;;1852027;76;21724;-85
2022/12/30 00:04:43;;;;;;;24.00;17.10;;;19.90;83.50;;;;;;1825425;77;21135;-85
2022/12/30 00:07:14;;;;;;;24.43;17.98;;;19.90;83.90;;;;;;1893655;76;21049;-85
2022/12/30 00:09:45;;;;;;;25.35;18.05;;;19.80;83.80;;;;;;1900339;74;21640;-84
2022/12/30 00:35:22;;;;;;;21.60;16.67;;;19.80;84.60;;;;;;1894390;74;21186;-89
2022/12/30 00:37:53;;;;;;;29.00;19.40;;;19.80;84.60;;;;;;1893940;75;21069;-86
2022/12/30 00:40:24;;;;;;;34.90;22.17;;;19.90;84.90;;;;;;1890452;74;21062;-87
2022/12/30 00:43:11;;;;;;;28.87;22.73;;;19.90;85.40;;;;;;1882532;75;21066;-87
2022/12/30 00:45:44;;;;;;;26.85;19.12;;;19.80;85.40;;;;;;1882386;75;21508;-86
2022/12/30 00:56:46;;;;;;;27.15;18.87;;;19.80;86.00;;;;;;1881544;74;21275;-73
2022/12/30 00:59:16;;;;;;;26.68;19.42;;;19.80;85.90;;;;;;1886199;75;21127;-72
2022/12/30 01:01:49;;;;;;;27.05;19.80;;;19.80;86.00;;;;;;1883134;75;21102;-73
2022/12/30 01:04:20;;;;;;;28.62;20.17;;;19.90;86.00;;;;;;1880663;75;21148;-72
2022/12/30 01:06:52;;;;;;;25.20;19.48;;;20.00;85.90;;;;;;1883022;73;21206;-72
2022/12/30 01:09:23;;;;;;;26.87;19.75;;;20.00;85.40;;;;;;1881805;75;21184;-74
2022/12/30 01:12:09;;;;;;;26.93;19.17;;;20.10;85.50;;;;;;1877732;75;21073;-71
2022/12/30 01:15:01;;;;;;;25.77;19.27;;;20.00;85.40;;;;;;1859625;75;21188;-71
2022/12/30 01:17:33;;;;;;;24.25;18.23;;;20.00;85.50;;;;;;1879468;75;21160;-71
2022/12/30 01:20:06;;;;;;;22.75;16.60;;;20.00;85.70;;;;;;1874495;75;21109;-70
2022/12/30 01:22:37;;;;;;;17.92;13.28;;;20.10;85.30;;;;;;1882195;74;21195;-71
2022/12/30 01:25:08;;;;;;;17.23;12.18;;;20.10;84.20;;;;;;1882632;75;21184;-70
2022/12/30 01:27:40;;;;;;;15.00;12.18;;;20.10;83.10;;;;;;1887178;75;21165;-69
2022/12/30 01:30:13;;;;;;;15.63;12.73;;;20.20;82.80;;;;;;1878147;75;21672;-71
2022/12/30 01:32:44;;;;;;;20.30;13.83;;;20.30;82.30;;;;;;1873107;75;21072;-72
2022/12/30 01:35:15;;;;;;;20.75;15.28;;;20.50;81.60;;;;;;1878211;75;21200;-70
2022/12/30 01:37:47;;;;;;;23.83;16.73;;;20.60;81.20;;;;;;1877496;75;21080;-72
2022/12/30 01:40:18;;;;;;;23.52;16.30;;;20.60;80.70;;;;;;1874524;75;21123;-72
2022/12/30 01:42:49;;;;;;;17.77;13.05;;;20.70;80.50;;;;;;1874854;75;21633;-71
2022/12/30 01:45:31;;;;;;;15.15;12.13;;;20.70;80.30;;;;;;1871874;75;21103;-72
2022/12/30 01:48:05;;;;;;;15.23;11.63;;;20.70;79.80;;;;;;1876766;75;21208;-74
2022/12/30 01:50:49;;;;;;;18.05;12.58;;;20.80;79.80;;;;;;1877779;75;21127;-72
2022/12/30 01:53:25;;;;;;;17.75;12.70;;;20.90;79.70;;;;;;1879666;75;21105;-71
2022/12/30 01:56:00;;;;;;;17.70;12.80;;;20.90;79.50;;;;;;1878257;75;21102;-73
2022/12/30 01:58:46;;;;;;;12.43;10.70;;;21.00;78.80;;;;;;1878097;75;21635;-74
2022/12/30 02:01:18;;;;;;;16.50;12.30;;;21.00;77.80;;;;;;1877759;75;21113;-74
2022/12/30 02:03:58;;;;;;;14.90;10.80;;;20.90;78.10;;;;;;1866104;75;21651;-73
2022/12/30 02:06:36;;;;;;;16.07;12.40;;;21.00;78.10;;;;;;1880503;75;22168;-72
2022/12/30 02:09:08;;;;;;;15.30;12.67;;;21.00;78.10;;;;;;1877587;75;21146;-72
2022/12/30 02:11:39;;;;;;;15.65;12.47;;;21.00;78.00;;;;;;1875440;75;21885;-73
2022/12/30 02:14:10;;;;;;;18.87;13.58;;;21.00;78.10;;;;;;1876189;75;21100;-73
2022/12/30 02:17:07;;;;;;;17.20;13.10;;;21.00;78.40;;;;;;1883222;75;21136;-71
2022/12/30 02:20:12;;;;;;;17.73;13.30;;;21.10;78.40;;;;;;1873597;75;21166;-72
2022/12/30 02:22:58;;;;;;;14.55;12.10;;;21.10;78.40;;;;;;1873906;75;21160;-73
2022/12/30 02:25:57;;;;;;;15.70;12.60;;;21.20;77.90;;;;;;1836229;76;21203;-73
2022/12/30 02:28:52;;;;;;;18.23;11.88;;;21.20;77.70;;;;;;1839345;77;21167;-72
2022/12/30 02:31:35;;;;;;;17.17;12.53;;;21.10;77.80;;;;;;1833836;76;21605;-72
2022/12/30 02:34:25;;;;;;;13.93;10.75;;;21.10;78.00;;;;;;1828595;76;21149;-71
2022/12/30 02:37:08;;;;;;;14.50;11.57;;;21.20;77.90;;;;;;1877285;75;21560;-72
2022/12/30 02:39:57;;;;;;;14.30;11.15;;;21.30;77.60;;;;;;1863998;75;21266;-72
2022/12/30 02:45:37;;;;;;;14.40;10.35;;;21.30;77.20;;;;;;1872930;75;21742;-71
2022/12/30 02:48:16;;;;;;;11.88;10.58;;;21.40;77.10;;;;;;1876052;75;21567;-72
2022/12/30 02:53:40;;;;;;;11.75;10.45;;;21.50;76.40;;;;;;1878150;75;21159;-71
2022/12/30 02:56:11;;;;;;;12.80;10.05;;;21.50;76.60;;;;;;1875955;75;21137;-71
2022/12/30 02:58:45;;;;;;;13.43;10.53;;;21.50;76.60;;;;;;1880544;75;21234;-71
2022/12/30 03:04:27;;;;;;;15.48;11.85;;;21.70;76.60;;;;;;1873500;75;21127;-70
2022/12/30 03:07:07;;;;;;;17.48;12.15;;;21.80;76.40;;;;;;1876552;75;21175;-71
2022/12/30 03:12:53;;;;;;;14.07;10.60;;;21.90;75.30;;;;;;1863506;75;21192;-70
2022/12/30 03:15:26;;;;;;;14.33;11.05;;;22.00;74.80;;;;;;1874603;75;21184;-70
2022/12/30 03:17:59;;;;;;;12.55;10.30;;;22.00;74.50;;;;;;1787961;78;21191;-71
2022/12/30 03:20:31;;;;;;;12.82;10.48;;;22.10;74.40;;;;;;1876481;75;21149;-71
2022/12/30 03:28:47;;;;;;;13.55;10.98;;;22.30;74.30;;;;;;1884871;74;21165;-71
2022/12/30 03:31:19;;;;;;;13.75;10.98;;;22.40;73.90;;;;;;1845726;76;21090;-71
2022/12/30 03:33:53;;;;;;;16.55;11.53;;;22.50;74.70;;;;;;1887011;74;21071;-88
2022/12/30 03:36:31;;;;;;;15.05;11.40;;;22.50;73.40;;;;;;1892605;75;21205;-92
2022/12/30 03:39:35;;;;;;;17.23;11.97;;;22.60;73.80;;;;;;1892400;74;21145;-91
2022/12/30 03:42:11;;;;;;;15.10;12.53;;;22.60;73.40;;;;;;1888574;73;21091;-88
2022/12/30 03:44:48;;;;;;;14.87;11.68;;;22.70;73.10;;;;;;1863349;76;21068;-93
2022/12/30 03:47:40;;;;;;;15.75;11.57;;;22.80;73.20;;;;;;1884947;74;21159;-93
2022/12/30 03:50:15;;;;;;;13.30;11.12;;;22.80;73.00;;;;;;1862736;74;21244;-95
2022/12/30 03:52:58;;;;;;;14.73;11.25;;;22.90;72.70;;;;;;1891768;74;21077;-92
2022/12/30 03:55:40;;;;;;;14.45;11.83;;;23.00;72.10;;;;;;1885393;75;21130;-91
2022/12/30 03:58:15;;;;;;;15.68;11.40;;;23.10;71.70;;;;;;1883382;76;21083;-93
2022/12/30 04:00:52;;;;;;;15.23;11.97;;;23.20;71.50;;;;;;1879527;75;21047;-92
2022/12/30 04:03:26;;;;;;;13.62;11.33;;;23.20;71.70;;;;;;1888465;74;21678;-92
2022/12/30 04:06:07;;;;;;;15.70;11.50;;;23.40;71.60;;;;;;1878606;74;21080;-90
2022/12/30 04:08:48;;;;;;;12.85;11.12;;;23.50;71.40;;;;;;1888921;74;21143;-91
2022/12/30 04:11:38;;;;;;;14.15;11.55;;;23.60;70.50;;;;;;1875330;74;21205;-87
2022/12/30 04:14:10;;;;;;;13.98;11.22;;;23.70;70.70;;;;;;1881430;75;21114;-89
2022/12/30 04:16:41;;;;;;;13.68;11.83;;;23.90;69.80;;;;;;1879724;74;21247;-89
2022/12/30 04:19:13;;;;;;;17.15;12.85;;;24.00;69.60;;;;;;1890522;74;21091;-90
2022/12/30 04:21:49;;;;;;;18.23;13.53;;;24.10;68.70;;;;;;1882628;75;21072;-93
2022/12/30 04:24:43;;;;;;;14.15;12.53;;;24.20;68.90;;;;;;1885575;74;21201;-92
2022/12/30 04:27:18;;;;;;;15.70;12.33;;;24.20;69.20;;;;;;1871766;75;21150;-89
2022/12/30 04:30:03;;;;;;;15.88;11.57;;;24.30;68.20;;;;;;1861180;75;21083;-91
2022/12/30 04:32:43;;;;;;;12.82;10.82;;;24.40;68.50;;;;;;1876402;75;21213;-92
2022/12/30 04:35:40;;;;;;;14.30;10.43;;;24.50;68.20;;;;;;1869953;75;21190;-91
2022/12/30 04:38:15;;;;;;;12.43;10.13;;;24.60;68.00;;;;;;1879346;75;21229;-91
2022/12/30 04:40:46;;;;;;;15.83;10.08;;;24.70;67.90;;;;;;1870298;76;21642;-93
2022/12/30 04:43:17;;;;;;;14.13;11.00;;;24.80;67.50;;;;;;1877486;76;21202;-91
2022/12/30 04:45:48;;;;;;;13.75;10.72;;;24.80;66.80;;;;;;1854434;76;21065;-89
2022/12/30 04:48:19;;;;;;;17.00;11.05;;;24.90;67.00;;;;;;1820786;77;21274;-74
2022/12/30 04:50:50;;;;;;;12.53;10.48;;;25.00;65.90;;;;;;1864438;75;21617;-75
2022/12/30 04:53:22;;;;;;;13.55;9.98;;;25.10;65.70;;;;;;1889671;75;21166;-74
2022/12/30 04:55:54;;;;;;;13.58;10.50;;;25.10;65.40;;;;;;1852708;76;21682;-72
2022/12/30 04:58:25;;;;;;;14.85;10.95;;;25.20;65.90;;;;;;1824516;77;22049;-74
2022/12/30 05:00:57;;;;;;;13.58;10.43;;;25.30;65.90;;;;;;1876080;75;21587;-75
2022/12/30 05:03:28;;;;;;;15.78;11.88;;;;;;;;;;1878475;75;21178;-76
2022/12/30 05:05:59;;;;;;;16.87;10.70;;;25.60;64.30;;;;;;1877053;75;21068;-75
2022/12/30 05:08:30;;;;;;;13.43;10.45;;;25.70;65.30;;;;;;1850508;76;21544;-74
2022/12/30 05:11:01;;;;;;;14.30;10.40;;;25.80;63.70;;;;;;1819941;77;21216;-73
2022/12/30 05:13:33;;;;;;;14.78;10.00;;;25.90;63.90;;;;;;1874563;76;21167;-75
2022/12/30 05:16:06;;;;;;;14.53;10.80;;;25.90;63.40;;;;;;1876489;75;21512;-74
2022/12/30 05:18:37;;;;;;;24.80;11.28;;;25.80;63.40;;;;;;1870932;75;21095;-75
2022/12/30 05:21:09;;;;;;;13.83;11.03;;;25.80;64.00;;;;;;1871288;76;21111;-73
2022/12/30 05:26:30;;;;;;;15.55;10.63;;;25.80;63.90;;;;;;1868459;75;21092;-74
2022/12/30 05:29:02;;;;;;;13.45;10.65;;;25.80;65.40;;;;;;1872052;75;21204;-73
2022/12/30 05:31:32;;;;;;;18.57;11.35;;;25.90;65.60;;;;;;1876730;75;21084;-74
2022/12/30 05:34:08;;;;;;;15.13;11.78;;;25.90;63.70;;;;;;1876010;74;22238;-72
2022/12/30 05:36:40;;;;;;;14.55;10.88;;;26.00;64.40;;;;;;1849020;76;21756;-74
2022/12/30 05:39:15;;;;;;;12.00;10.45;;;26.10;64.00;;;;;;1812858;77;21202;-75
2022/12/30 05:41:50;;;;;;;11.53;9.63;;;26.10;63.00;;;;;;1857183;76;21127;-75
2022/12/30 05:44:25;;;;;;;14.40;11.20;;;26.10;63.20;;;;;;1871438;75;21237;-75
2022/12/30 05:47:00;;;;;;;15.43;10.80;;;26.10;63.80;;;;;;1873234;75;21185;-75
2022/12/30 05:49:32;;;;;;;13.13;9.93;;;26.10;62.90;;;;;;1870705;75;21080;-75
2022/12/30 05:52:04;;;;;;;13.48;10.25;;;26.10;62.70;;;;;;1874144;76;21586;-75
2022/12/30 05:54:59;;;;;;;14.43;9.60;;;26.10;62.90;;;;;;1861457;75;21143;-72
2022/12/30 05:57:30;;;;;;;15.43;10.23;;;26.20;63.00;;;;;;1850803;76;21069;-75
2022/12/30 06:00:28;;;;;;;14.15;10.23;;;26.30;62.50;;;;;;1868536;75;21269;-75
2022/12/30 06:03:00;;;;;;;13.62;10.53;;;26.40;61.90;;;;;;1871723;75;21582;-75
2022/12/30 06:05:33;;;;;;;12.90;9.55;;;26.40;62.60;;;;;;1832081;76;21145;-73
2022/12/30 06:08:04;;;;;;;12.60;10.05;;;26.50;61.50;;;;;;1878993;75;21079;-76
2022/12/30 06:10:36;;;;;;;11.88;10.08;;;26.50;61.80;;;;;;1869855;75;21123;-74
2022/12/30 06:13:08;;;;;;;13.13;9.95;;;26.60;61.10;;;;;;1869892;75;21119;-73
2022/12/30 06:15:39;;;;;;;12.47;10.23;;;26.60;61.20;;;;;;1875304;76;21382;-74
2022/12/30 06:18:10;;;;;;;12.40;9.75;;;26.60;61.30;;;;;;1876339;75;21078;-74
2022/12/30 06:20:42;;;;;;;14.50;9.85;;;26.60;61.40;;;;;;1874125;75;21583;-75
2022/12/30 06:23:16;;;;;;;12.60;9.65;;;26.60;60.90;;;;;;1885061;75;21674;-77
2022/12/30 06:25:48;;;;;;;12.85;9.73;;;26.60;60.70;;;;;;1868901;75;21943;-74
2022/12/30 06:28:21;;;;;;;11.65;9.08;;;26.70;60.90;;;;;;1871813;75;21108;-75
2022/12/30 06:30:56;;;;;;;12.45;8.95;;;26.70;60.90;;;;;;1900578;74;21247;-73
2022/12/30 06:33:27;;;;;;;11.35;9.25;;;26.70;60.40;;;;;;1898154;74;21267;-73
2022/12/30 06:36:00;;;;;;;11.43;9.78;;;26.80;60.60;;;;;;1901943;74;21523;-73
2022/12/30 06:38:32;;;;;;;11.03;9.13;;;26.80;60.70;;;;;;1871412;76;21183;-73
2022/12/30 06:41:03;;;;;;;12.00;8.83;;;26.80;60.50;;;;;;1860108;76;21225;-72
2022/12/30 06:43:36;;;;;;;14.13;8.73;;;26.80;60.30;;;;;;1823991;77;21155;-82
2022/12/30 06:46:08;;;;;;;11.80;9.00;;;26.80;60.50;;;;;;1823443;77;21094;-83
2022/12/30 06:48:39;;;;;;;10.90;8.25;;;26.80;60.70;;;;;;1866321;75;21077;-81
2022/12/30 06:51:10;;;;;;;12.80;9.38;;;26.90;60.00;;;;;;1895441;74;21152;-81
2022/12/30 06:53:43;;;;;;;12.40;8.55;;;27.00;59.80;;;;;;1899749;75;21161;-81
2022/12/30 06:56:14;;;;;;;10.23;8.38;;;27.00;59.60;;;;;;1870086;76;21370;-81
2022/12/30 06:58:45;;;;;;;11.08;7.85;;;26.90;60.20;;;;;;1868193;75;21080;-82
2022/12/30 07:01:18;;;;;;;9.55;7.65;;;26.90;59.90;;;;;;1881644;75;21557;-81
2022/12/30 07:03:52;;;;;;;10.58;8.10;;;27.00;60.40;;;;;;1842199;77;21147;-82
2022/12/30 07:06:48;;;;;;;12.03;8.38;;;;;;;;;;1874027;76;21179;-74
2022/12/30 07:09:19;;;;;;;11.53;9.25;;;27.10;58.80;;;;;;1868860;75;21201;-74
2022/12/30 07:11:50;;;;;;;10.88;9.08;;;27.10;59.40;;;;;;1900864;74;21223;-86
2022/12/30 07:14:22;;;;;;;9.45;8.03;;;27.10;59.60;;;;;;1902256;74;21181;-83
2022/12/30 07:17:10;;;;;;;10.68;8.23;;;27.20;59.70;;;;;;1890751;74;21217;-89
2022/12/30 07:19:42;;;;;;;11.78;8.00;;;27.10;59.70;;;;;;1895540;74;21153;-87
2022/12/30 07:22:13;;;;;;;10.05;8.43;;;27.10;59.50;;;;;;1903677;74;21142;-86
2022/12/30 07:24:47;;;;;;;10.43;9.13;;;27.10;59.50;;;;;;1902690;74;21071;-88
2022/12/30 07:27:17;;;;;;;9.80;7.37;;;27.10;59.50;;;;;;1881590;75;21139;-89
2022/12/30 07:29:47;;;;;;;10.45;8.03;;;27.10;59.40;;;;;;1827075;78;21127;-89
2022/12/30 07:32:21;;;;;;;10.20;8.25;;;27.10;60.00;;;;;;1829165;77;21115;-89
2022/12/30 07:34:52;;;;;;;11.08;7.72;;;27.00;59.00;;;;;;1879475;75;21207;-88
2022/12/30 07:37:23;;;;;;;9.05;7.65;;;27.00;59.90;;;;;;1899165;75;21126;-88
2022/12/30 07:39:58;;;;;;;13.05;9.10;;;27.00;59.80;;;;;;1895309;74;21099;-88
2022/12/30 07:42:29;;;;;;;12.10;8.25;;;27.00;59.70;;;;;;1890102;75;21091;-89
2022/12/30 07:45:00;;;;;;;10.75;8.70;;;27.10;60.00;;;;;;1898130;74;21067;-88
2022/12/30 07:47:36;;;;;;;9.95;8.38;;;27.10;59.80;;;;;;1897001;76;21268;-87
2022/12/30 07:50:08;;;;;;;10.88;8.75;;;27.10;59.70;;;;;;1895310;75;21176;-89
2022/12/30 07:52:40;;;;;;;10.98;8.23;;;27.10;60.20;;;;;;1897142;76;21176;-88
2022/12/30 07:55:10;;;;;;;12.70;8.88;;;27.10;59.60;;;;;;1897407;75;21181;-88
2022/12/30 07:57:44;;;;;;;11.08;8.83;;;27.10;59.20;;;;;;1897691;74;21087;-88
2022/12/30 08:00:16;;;;;;;9.63;8.45;;;27.10;59.20;;;;;;1894320;74;21137;-89
2022/12/30 08:02:48;;;;;;;10.00;7.97;;;27.10;59.50;;;;;;1897379;74;21224;-89
2022/12/30 08:05:19;;;;;;;11.28;8.80;;;27.10;59.20;;;;;;1912953;74;21570;-87
2022/12/30 08:07:54;;;;;;;9.35;7.70;;;27.10;59.40;;;;;;1892770;74;21582;-88
2022/12/30 08:10:31;;;;;;;11.20;8.20;;;27.10;59.60;;;;;;1900068;76;21180;-87
2022/12/30 08:13:04;;;;;;;12.53;8.88;;;27.10;59.90;;;;;;1899982;75;21095;-88
2022/12/30 08:15:38;;;;;;;9.73;8.28;;;27.10;59.20;;;;;;1902045;74;21059;-88
2022/12/30 08:18:09;;;;;;;10.78;8.85;;;27.10;59.00;;;;;;1898654;74;21095;-89
2022/12/30 08:20:41;;;;;;;10.28;7.58;;;27.10;59.40;;;;;;1898088;75;21519;-88
2022/12/30 08:23:15;;;;;;;8.78;7.87;;;27.10;59.00;;;;;;1893811;75;21426;-89
2022/12/30 08:25:46;;;;;;;11.48;8.05;;;27.10;59.50;;;;;;1899807;74;21531;-88
2022/12/30 08:28:18;;;;;;;10.35;8.00;;;27.00;59.60;;;;;;1895417;71;21401;-89
2022/12/30 08:30:53;;;;;;;11.00;8.03;;;27.00;59.70;;;;;;1908368;72;21616;-89
2022/12/30 08:33:22;;;;;;;12.45;9.38;;;27.00;59.70;;;;;;1826449;78;21264;-90
2022/12/30 08:35:53;;;;;;;14.23;9.40;;;27.00;59.30;;;;;;1821090;78;21226;-88
2022/12/30 08:38:25;;;;;;;12.60;8.95;;;26.90;59.90;;;;;;1898817;75;21657;-88
2022/12/30 08:40:55;;;;;;;10.43;8.68;;;26.90;59.90;;;;;;1901709;75;21122;-88
2022/12/30 08:43:27;;;;;;;16.45;10.00;;;26.90;59.90;;;;;;1903799;74;21597;-86
2022/12/30 08:45:59;;;;;;;12.33;9.60;;;26.90;59.80;;;;;;1857025;77;21097;-89
2022/12/30 08:48:32;;;;;;;12.65;9.63;;;26.80;59.80;;;;;;1857441;76;21097;-88
2022/12/30 08:51:05;;;;;;;11.83;8.85;;;26.90;59.80;;;;;;1869174;76;21056;-87
2022/12/30 08:53:36;;;;;;;10.30;8.90;;;26.90;60.10;;;;;;1904656;75;21123;-88
2022/12/30 08:56:12;;;;;;;12.07;8.85;;;26.90;60.20;;;;;;1826897;78;21192;-87
2022/12/30 08:58:44;;;;;;;12.88;10.65;;;26.90;60.00;;;;;;1903099;75;21075;-88
2022/12/30 09:01:17;;;;;;;17.20;10.32;;;26.80;59.90;;;;;;1848472;76;21146;-89
2022/12/30 09:03:51;;;;;;;13.38;10.70;;;26.80;60.30;;;;;;1856140;76;21204;-88
2022/12/30 09:06:24;;;;;;;12.13;10.28;;;26.80;60.20;;;;;;1869956;75;21157;-85
2022/12/30 09:08:58;;;;;;;13.98;10.98;;;26.80;60.20;;;;;;1899681;74;21139;-86
2022/12/30 09:11:32;;;;;;;14.98;10.65;;;26.80;60.00;;;;;;1902574;74;21098;-87
2022/12/30 09:14:04;;;;;;;12.03;9.88;;;26.80;60.30;;;;;;1898775;74;21207;-88
2022/12/30 09:16:36;;;;;;;12.18;9.43;;;26.80;60.30;;;;;;1902437;75;21079;-87
2022/12/30 09:19:08;;;;;;;11.55;8.60;;;26.80;60.80;;;;;;1905344;74;21052;-89
2022/12/30 09:21:40;;;;;;;15.00;9.68;;;26.80;60.50;;;;;;1874122;75;21120;-88
2022/12/30 09:24:14;;;;;;;10.78;8.28;;;26.80;60.40;;;;;;1897153;75;21603;-88
2022/12/30 09:26:45;;;;;;;10.08;8.73;;;26.80;60.60;;;;;;1831441;78;21181;-88
2022/12/30 09:29:17;;;;;;;11.65;9.43;;;26.80;60.40;;;;;;1864632;75;21231;-87
2022/12/30 09:31:48;;;;;;;14.23;9.10;;;26.70;60.40;;;;;;1905046;75;21088;-88
2022/12/30 09:34:20;;;;;;;12.00;9.35;;;26.70;60.50;;;;;;1853190;77;21116;-87
2022/12/30 09:36:51;;;;;;;10.48;8.45;;;26.70;60.60;;;;;;1879279;76;21213;-88
2022/12/30 09:39:31;;;;;;;12.70;8.30;;;26.70;60.80;;;;;;1877912;75;21127;-87
2022/12/30 09:45:04;;;;;;;12.75;8.50;;;26.60;60.50;;;;;;1877217;76;21080;-87
2022/12/30 09:47:42;;;;;;;9.30;7.70;;;26.60;60.60;;;;;;1867438;76;21252;-87
2022/12/30 09:50:24;;;;;;;9.10;6.90;;;26.60;61.20;;;;;;1888608;75;21143;-87
2022/12/30 09:53:06;;;;;;;9.03;8.03;;;26.60;61.20;;;;;;1890903;75;21072;-87
2022/12/30 09:55:45;;;;;;;11.15;7.03;;;26.50;60.70;;;;;;1897448;74;21592;-86
2022/12/30 09:58:18;;;;;;;9.90;7.30;;;26.50;60.80;;;;;;1879093;74;21587;-88
2022/12/30 10:00:53;;;;;;;12.10;7.58;;;26.40;60.90;;;;;;1873369;75;21610;-85
2022/12/30 10:03:25;;;;;;;10.00;7.65;;;26.40;61.20;;;;;;1875992;75;21131;-88
2022/12/30 10:06:06;;;;;;;7.50;6.70;;;26.40;61.20;;;;;;1871294;75;21150;-85
2022/12/30 10:09:10;;;;;;;10.88;6.97;;;26.30;61.50;;;;;;1876806;75;21524;-86
2022/12/30 10:12:03;;;;;;;12.63;7.25;;;26.30;61.60;;;;;;1871077;75;21183;-83
2022/12/30 10:15:01;;;;;;;11.28;6.95;;;26.30;61.90;;;;;;1876790;75;21138;-88
2022/12/30 10:17:37;;;;;;;9.83;7.05;;;26.20;61.90;;;;;;1865701;75;21170;-86
2022/12/30 10:20:41;;;;;;;9.85;7.15;;;26.20;62.10;;;;;;1871653;75;21071;-86
2022/12/30 10:23:26;;;;;;;12.35;7.70;;;26.20;62.30;;;;;;1856938;76;21168;-86
2022/12/30 10:26:08;;;;;;;9.90;7.45;;;26.10;62.40;;;;;;1878155;75;21084;-88
2022/12/30 10:28:42;;;;;;;8.98;6.92;;;26.00;62.50;;;;;;1848635;76;21160;-90
2022/12/30 10:31:15;;;;;;;10.25;7.40;;;26.10;62.70;;;;;;1878152;75;21147;-87
2022/12/30 10:33:48;;;;;;;10.15;7.22;;;26.00;62.60;;;;;;1852487;76;21197;-86
2022/12/30 10:36:24;;;;;;;10.43;7.30;;;26.00;62.90;;;;;;1868655;76;21594;-86
2022/12/30 10:39:09;;;;;;;7.75;6.53;;;25.90;62.80;;;;;;1867700;76;21268;-88
2022/12/30 10:41:56;;;;;;;12.10;7.00;;;25.90;62.80;;;;;;1865993;74;21213;-87
2022/12/30 10:44:47;;;;;;;11.22;7.80;;;25.80;62.90;;;;;;1878645;76;21084;-87
2022/12/30 10:47:45;;;;;;;10.05;7.28;;;25.80;63.00;;;;;;1881334;76;21202;-89
2022/12/30 10:50:40;;;;;;;12.18;8.38;;;25.80;63.20;;;;;;1883758;76;21155;-87
2022/12/30 10:53:20;;;;;;;11.50;8.03;;;25.80;63.30;;;;;;1878080;76;21139;-89
2022/12/30 10:55:57;;;;;;;10.63;8.18;;;25.70;63.30;;;;;;1879135;76;21115;-87
2022/12/30 10:58:32;;;;;;;12.53;8.88;;;25.70;63.50;;;;;;1881046;76;21120;-87
2022/12/30 11:01:05;;;;;;;9.90;7.78;;;25.70;63.70;;;;;;1873409;76;21575;-87
2022/12/30 11:03:44;;;;;;;12.45;8.63;;;25.60;63.90;;;;;;1872023;76;21126;-88
2022/12/30 11:06:28;;;;;;;10.65;8.45;;;25.60;64.00;;;;;;1866216;75;21634;-86
2022/12/30 11:09:19;;;;;;;13.55;8.38;;;25.60;64.20;;;;;;1876236;76;21142;-88
2022/12/30 11:15:08;;;;;;;18.65;9.90;;;25.50;64.60;;;;;;1876946;76;21083;-87
2022/12/30 11:17:53;;;;;;;14.83;9.98;;;25.50;65.00;;;;;;1886963;76;21559;-86
2022/12/30 11:20:41;;;;;;;13.48;9.78;;;25.40;64.90;;;;;;1876675;76;21598;-87
2022/12/30 11:23:23;;;;;;;14.95;9.33;;;25.40;65.10;;;;;;1878580;76;21151;-87
2022/12/30 11:25:54;;;;;;;17.32;10.45;;;25.40;65.30;;;;;;1875783;76;21653;-87
2022/12/30 11:28:39;;;;;;;13.38;10.15;;;25.40;66.60;;;;;;1884654;76;21120;-88
2022/12/30 11:31:14;;;;;;;16.42;10.55;;;25.40;65.60;;;;;;1857621;76;21221;-87
2022/12/30 11:33:57;;;;;;;15.83;10.82;;;25.30;65.70;;;;;;1904244;74;21519;-86
2022/12/30 11:36:33;;;;;;;16.23;10.25;;;25.30;65.90;;;;;;1886781;76;21125;-86
2022/12/30 11:39:09;;;;;;;14.45;10.63;;;25.30;66.00;;;;;;1860842;76;21089;-87
2022/12/30 11:41:49;;;;;;;15.08;10.88;;;25.30;66.20;;;;;;1870529;76;21681;-87
2022/12/30 11:44:28;;;;;;;14.50;9.58;;;25.30;66.20;;;;;;1898141;74;21193;-86
2022/12/30 11:47:04;;;;;;;19.37;11.12;;;25.20;66.40;;;;;;1905863;75;21051;-87
2022/12/30 11:49:37;;;;;;;16.07;10.32;;;25.20;66.60;;;;;;1907295;75;21473;-87
2022/12/30 11:52:28;;;;;;;16.80;11.73;;;25.10;66.70;;;;;;1896921;74;21146;-87
2022/12/30 11:55:04;;;;;;;22.05;14.10;;;25.10;66.90;;;;;;1878048;75;21241;-87
2022/12/30 11:57:46;;;;;;;20.52;13.15;;;25.10;67.10;;;;;;1904127;74;21099;-87
2022/12/30 12:00:23;;;;;;;18.48;12.85;;;25.10;67.20;;;;;;1904800;75;21059;-88
2022/12/30 12:02:55;;;;;;;15.90;12.37;;;25.00;67.20;;;;;;1903652;75;21137;-87
2022/12/30 12:05:31;;;;;;;16.25;11.70;;;25.00;67.50;;;;;;1899997;74;21174;-86
2022/12/30 12:08:05;;;;;;;18.15;13.55;;;25.00;67.70;;;;;;1855849;77;21166;-86
2022/12/30 12:10:37;;;;;;;19.95;15.15;;;25.00;67.90;;;;;;1843668;76;21193;-85
2022/12/30 12:13:14;;;;;;;24.87;16.87;;;25.00;68.30;;;;;;1827942;78;21129;-86
2022/12/30 12:15:48;;;;;;;27.20;16.27;;;24.90;68.50;;;;;;1875627;75;21135;-87
2022/12/30 12:18:31;;;;;;;22.13;15.90;;;24.90;68.80;;;;;;1899622;74;21137;-87
2022/12/30 12:21:13;;;;;;;24.92;15.08;;;24.90;69.00;;;;;;1899618;75;21200;-90
2022/12/30 12:23:46;;;;;;;21.52;14.98;;;24.90;69.00;;;;;;1852404;76;21176;-88
2022/12/30 12:26:24;;;;;;;23.32;15.98;;;24.80;69.40;;;;;;1862114;76;21311;-86
2022/12/30 12:29:02;;;;;;;22.87;15.70;;;24.80;69.80;;;;;;1876272;75;21548;-87
2022/12/30 12:31:43;;;;;;;25.88;16.52;;;24.80;70.00;;;;;;1873714;75;21951;-86
2022/12/30 12:34:34;;;;;;;24.75;15.55;;;24.70;70.90;;;;;;1881824;75;21103;-87
2022/12/30 12:37:33;;;;;;;23.73;16.27;;;24.70;70.80;;;;;;1879017;76;21147;-86
2022/12/30 12:40:29;;;;;;;22.70;15.50;;;24.70;71.40;;;;;;1878572;76;21076;-86
2022/12/30 12:43:24;;;;;;;23.60;15.78;;;24.60;71.50;;;;;;1880880;75;21540;-87
2022/12/30 12:46:15;;;;;;;24.35;16.20;;;24.60;71.40;;;;;;1877017;76;21095;-87
2022/12/30 12:48:53;;;;;;;25.72;16.37;;;24.60;71.90;;;;;;1882588;76;21571;-87
2022/12/30 12:51:44;;;;;;;26.35;17.65;;;24.50;71.90;;;;;;1873330;75;21198;-86
2022/12/30 12:54:54;;;;;;;29.48;20.77;;;24.50;72.10;;;;;;1878669;76;21476;-87
2022/12/30 12:57:44;;;;;;;34.92;23.15;;;24.40;72.40;;;;;;1790048;79;21180;-86
2022/12/30 13:00:19;;;;;;;33.53;21.30;;;24.40;72.60;;;;;;1796081;78;21196;-87
2022/12/30 13:03:14;;;;;;;29.35;21.80;;;24.30;72.90;;;;;;1849941;76;21204;-87
2022/12/30 13:06:00;;;;;;;29.52;20.45;;;24.30;72.90;;;;;;1885555;75;21134;-88
2022/12/30 13:08:53;;;;;;;29.37;19.40;;;24.20;72.90;;;;;;1886688;75;21119;-87
2022/12/30 13:11:35;;;;;;;26.50;18.37;;;24.20;72.90;;;;;;1851755;77;21093;-87
2022/12/30 13:14:23;;;;;;;26.27;19.02;;;24.20;73.10;;;;;;1847339;77;21566;-86
2022/12/30 13:16:59;;;;;;;27.87;18.65;;;24.20;73.20;;;;;;1887569;76;21098;-87
2022/12/30 13:19:35;;;;;;;24.92;17.42;;;24.10;73.10;;;;;;1892833;75;21094;-88
2022/12/30 13:22:09;;;;;;;24.90;16.60;;;24.10;73.40;;;;;;1897943;74;21072;-88
2022/12/30 13:24:48;;;;;;;22.40;16.97;;;24.00;73.10;;;;;;1887392;75;21120;-87
2022/12/30 13:27:43;;;;;;;25.88;17.32;;;24.00;73.10;;;;;;1882821;74;21174;-87
2022/12/30 13:30:17;;;;;;;22.40;16.00;;;24.00;73.40;;;;;;1866716;76;21103;-87
2022/12/30 13:33:11;;;;;;;23.65;15.63;;;24.00;73.40;;;;;;1880746;75;21087;-86
2022/12/30 13:35:54;;;;;;;25.35;15.13;;;23.90;73.50;;;;;;1915221;74;21076;-86
2022/12/30 13:38:46;;;;;;;25.25;15.53;;;23.90;73.80;;;;;;1893304;73;21049;-87
2022/12/30 13:41:24;;;;;;;22.95;14.43;;;23.80;73.90;;;;;;1824742;74;21139;-87
2022/12/30 13:44:06;;;;;;;20.40;13.72;;;23.80;74.10;;;;;;1917326;73;21118;-86
2022/12/30 13:46:40;;;;;;;21.45;14.00;;;23.80;74.40;;;;;;1936911;73;21069;-85
2022/12/30 13:49:28;;;;;;;19.02;14.33;;;23.80;74.50;;;;;;1914828;74;21172;-86
2022/12/30 13:52:01;;;;;;;20.35;13.48;;;23.70;74.50;;;;;;1901936;73;21626;-86
2022/12/30 13:54:36;;;;;;;17.50;12.45;;;23.70;74.70;;;;;;1907206;75;21057;-86
2022/12/30 13:57:06;;;;;;;23.92;13.72;;;23.70;75.00;;;;;;1888471;74;21132;-86
2022/12/30 13:59:41;;;;;;;20.82;11.88;;;23.60;75.00;;;;;;1910766;73;21075;-85
2022/12/30 14:02:23;;;;;;;18.40;11.05;;;23.60;74.30;;;;;;1907395;74;21104;-87
2022/12/30 14:05:00;;;;;;;16.80;11.00;;;23.60;74.60;;;;;;1916498;74;21123;-86
2022/12/30 14:07:43;;;;;;;13.58;10.35;;;23.50;74.50;;;;;;1918200;75;21068;-87
2022/12/30 14:10:22;;;;;;;13.00;8.98;;;23.50;74.50;;;;;;1929767;73;21048;-87
2022/12/30 14:13:07;;;;;;;12.63;9.05;;;23.40;74.20;;;;;;1923888;73;21100;-86
2022/12/30 14:15:45;;;;;;;12.80;9.33;;;23.50;74.20;;;;;;1921833;74;21116;-86
2022/12/30 14:18:18;;;;;;;14.33;9.03;;;23.40;73.90;;;;;;1921157;73;21041;-87
2022/12/30 14:21:01;;;;;;;13.03;9.53;;;23.40;74.10;;;;;;1910950;73;21184;-87
2022/12/30 14:23:46;;;;;;;10.90;8.18;;;23.40;74.10;;;;;;1903622;74;21552;-86